sensor_id;sensor_type;location;lat;lon;timestamp;temperature;humidity
11126;DHT22;5617;54.046;10.676;2023-04-01T00:01:17;9.20;99.90
11126;DHT22;5617;54.046;10.676;2023-04-01T00:03:25;9.10;99.90
11126;DHT22;5617;54.046;10.676;2023-04-01T00:05:33;9.10;99.90
11126;DHT22;5617;54.046;10.676;2023-04-01T00:07:41;9.10;99.90
11126;DHT22;5617;54.046;10.676;2023-04-01T00:09:49;9.00;99.90
11126;DHT22;5617;54.046;10.676;2023-04-01T00:11:58;9.00;99.90
11126;DHT22;5617;54.046;10.676;2023-04-01T00:14:06;8.90;99.90
11126;DHT22;5617;54.046;10.676;2023-04-01T00:16:14;8.90;99.90
11126;DHT22;5617;54.046;10.676;2023-04-01T00:18:22;8.90;99.90
11126;DHT22;5617;54.046;10.676;2023-04-01T00:20:30;8.80;99.90
11126;DHT22;5617;54.046;10.676;2023-04-01T00:22:38;8.80;99.90
11126;DHT22;5617;54.046;10.676;2023-04-01T00:24:45;8.70;99.90
11126;DHT22;5617;54.046;10.676;2023-04-01T00:26:54;8.70;99.90
11126;DHT22;5617;54.046;10.676;2023-04-01T00:29:03;8.60;99.90
11126;DHT22;5617;54.046;10.676;2023-04-01T00:31:12;8.60;99.90
11126;DHT22;5617;54.046;10.676;2023-04-01T00:33:21;8.60;99.90
11126;DHT22;5617;54.046;10.676;2023-04-01T00:35:28;8.50;99.90
11126;DHT22;5617;54.046;10.676;2023-04-01T00:37:38;8.40;99.90
11126;DHT22;5617;54.046;10.676;2023-04-01T00:39:45;8.40;99.90
11126;DHT22;5617;54.046;10.676;2023-04-01T00:41:53;8.30;99.90
11126;DHT22;5617;54.046;10.676;2023-04-01T00:44:18;8.30;99.90
11126;DHT22;5617;54.046;10.676;2023-04-01T00:46:26;8.20;99.90
11126;DHT22;5617;54.046;10.676;2023-04-01T00:48:36;8.10;99.90
11126;DHT22;5617;54.046;10.676;2023-04-01T00:50:49;8.10;99.90
11126;DHT22;5617;54.046;10.676;2023-04-01T00:52:59;8.10;99.90
11126;DHT22;5617;54.046;10.676;2023-04-01T00:55:11;8.10;99.90
11126;DHT22;5617;54.046;10.676;2023-04-01T00:57:23;8.00;99.90
11126;DHT22;5617;54.046;10.676;2023-04-01T00:59:37;8.00;99.90
11126;DHT22;5617;54.046;10.676;2023-04-01T01:01:46;8.00;99.90
11126;DHT22;5617;54.046;10.676;2023-04-01T01:03:54;8.00;99.90
11126;DHT22;5617;54.046;10.676;2023-04-01T01:06:11;8.00;99.90
11126;DHT22;5617;54.046;10.676;2023-04-01T01:08:32;7.90;99.90
11126;DHT22;5617;54.046;10.676;2023-04-01T01:10:46;7.80;99.90
11126;DHT22;5617;54.046;10.676;2023-04-01T01:13:04;7.80;99.90
11126;DHT22;5617;54.046;10.676;2023-04-01T01:15:20;7.80;99.90
11126;DHT22;5617;54.046;10.676;2023-04-01T01:17:35;7.70;99.90
11126;DHT22;5617;54.046;10.676;2023-04-01T01:20:06;7.70;99.90
11126;DHT22;5617;54.046;10.676;2023-04-01T01:22:27;7.70;99.90
11126;DHT22;5617;54.046;10.676;2023-04-01T01:25:01;7.70;99.90
11126;DHT22;5617;54.046;10.676;2023-04-01T01:27:14;7.60;99.90
11126;DHT22;5617;54.046;10.676;2023-04-01T01:32:04;7.60;99.90
11126;DHT22;5617;54.046;10.676;2023-04-01T01:34:18;7.50;99.90
11126;DHT22;5617;54.046;10.676;2023-04-01T01:36:31;7.50;99.90
11126;DHT22;5617;54.046;10.676;2023-04-01T01:38:41;7.50;99.90
11126;DHT22;5617;54.046;10.676;2023-04-01T01:40:50;7.50;99.90
11126;DHT22;5617;54.046;10.676;2023-04-01T01:43:05;7.50;99.90
11126;DHT22;5617;54.046;10.676;2023-04-01T01:45:15;7.50;99.90
11126;DHT22;5617;54.046;10.676;2023-04-01T01:47:25;7.50;99.90
11126;DHT22;5617;54.046;10.676;2023-04-01T01:49:35;7.40;99.90
11126;DHT22;5617;54.046;10.676;2023-04-01T01:51:45;7.40;99.90
11126;DHT22;5617;54.046;10.676;2023-04-01T01:53:54;7.40;99.90
11126;DHT22;5617;54.046;10.676;2023-04-01T01:56:02;7.40;99.90
11126;DHT22;5617;54.046;10.676;2023-04-01T01:58:12;7.40;99.90
11126;DHT22;5617;54.046;10.676;2023-04-01T02:00:21;7.30;99.90
11126;DHT22;5617;54.046;10.676;2023-04-01T02:02:30;7.30;99.90
11126;DHT22;5617;54.046;10.676;2023-04-01T02:04:40;7.30;99.90
11126;DHT22;5617;54.046;10.676;2023-04-01T02:06:54;7.30;99.90
11126;DHT22;5617;54.046;10.676;2023-04-01T02:09:04;7.20;99.90
11126;DHT22;5617;54.046;10.676;2023-04-01T02:11:16;7.30;99.90
11126;DHT22;5617;54.046;10.676;2023-04-01T02:13:30;7.20;99.90
11126;DHT22;5617;54.046;10.676;2023-04-01T02:15:42;7.20;99.90
11126;DHT22;5617;54.046;10.676;2023-04-01T02:17:52;7.20;99.90
11126;DHT22;5617;54.046;10.676;2023-04-01T02:20:01;7.20;99.90
11126;DHT22;5617;54.046;10.676;2023-04-01T02:22:16;7.20;99.90
11126;DHT22;5617;54.046;10.676;2023-04-01T02:24:27;7.20;99.90
11126;DHT22;5617;54.046;10.676;2023-04-01T02:26:35;7.20;99.90
11126;DHT22;5617;54.046;10.676;2023-04-01T02:28:45;7.20;99.90
11126;DHT22;5617;54.046;10.676;2023-04-01T02:30:54;7.20;99.90
11126;DHT22;5617;54.046;10.676;2023-04-01T02:33:03;7.10;99.90
11126;DHT22;5617;54.046;10.676;2023-04-01T02:35:13;7.10;99.90
11126;DHT22;5617;54.046;10.676;2023-04-01T02:37:23;7.10;99.90
11126;DHT22;5617;54.046;10.676;2023-04-01T02:39:31;7.10;99.90
11126;DHT22;5617;54.046;10.676;2023-04-01T02:41:39;7.10;99.90
11126;DHT22;5617;54.046;10.676;2023-04-01T02:43:47;7.10;99.90
11126;DHT22;5617;54.046;10.676;2023-04-01T02:45:55;7.00;99.90
11126;DHT22;5617;54.046;10.676;2023-04-01T02:48:03;7.00;99.90
11126;DHT22;5617;54.046;10.676;2023-04-01T02:50:12;7.00;99.90
11126;DHT22;5617;54.046;10.676;2023-04-01T02:52:19;7.00;99.90
11126;DHT22;5617;54.046;10.676;2023-04-01T02:54:29;7.00;99.90
11126;DHT22;5617;54.046;10.676;2023-04-01T02:56:37;7.00;99.90
11126;DHT22;5617;54.046;10.676;2023-04-01T02:58:45;6.90;99.90
11126;DHT22;5617;54.046;10.676;2023-04-01T03:00:52;6.90;99.90
11126;DHT22;5617;54.046;10.676;2023-04-01T03:03:02;6.90;99.90
11126;DHT22;5617;54.046;10.676;2023-04-01T03:05:10;6.90;99.90
11126;DHT22;5617;54.046;10.676;2023-04-01T03:07:19;6.90;99.90
11126;DHT22;5617;54.046;10.676;2023-04-01T03:09:27;6.90;99.90
11126;DHT22;5617;54.046;10.676;2023-04-01T03:11:37;6.80;99.90
11126;DHT22;5617;54.046;10.676;2023-04-01T03:13:45;6.90;99.90
11126;DHT22;5617;54.046;10.676;2023-04-01T03:15:55;6.80;99.90
11126;DHT22;5617;54.046;10.676;2023-04-01T03:18:05;6.80;99.90
11126;DHT22;5617;54.046;10.676;2023-04-01T03:20:14;6.70;99.90
11126;DHT22;5617;54.046;10.676;2023-04-01T03:22:22;6.70;99.90
11126;DHT22;5617;54.046;10.676;2023-04-01T03:24:29;6.70;99.90
11126;DHT22;5617;54.046;10.676;2023-04-01T03:26:38;6.70;99.90
11126;DHT22;5617;54.046;10.676;2023-04-01T03:28:46;6.70;99.90
11126;DHT22;5617;54.046;10.676;2023-04-01T03:30:54;6.60;99.90
11126;DHT22;5617;54.046;10.676;2023-04-01T03:33:02;6.60;99.90
11126;DHT22;5617;54.046;10.676;2023-04-01T03:35:10;6.60;99.90
11126;DHT22;5617;54.046;10.676;2023-04-01T03:37:18;6.60;99.90
11126;DHT22;5617;54.046;10.676;2023-04-01T03:39:25;6.60;99.90
11126;DHT22;5617;54.046;10.676;2023-04-01T03:41:35;6.50;99.90
11126;DHT22;5617;54.046;10.676;2023-04-01T03:43:45;6.50;99.90
11126;DHT22;5617;54.046;10.676;2023-04-01T03:45:53;6.50;99.90
11126;DHT22;5617;54.046;10.676;2023-04-01T03:48:03;6.50;99.90
11126;DHT22;5617;54.046;10.676;2023-04-01T03:50:11;6.50;99.90
11126;DHT22;5617;54.046;10.676;2023-04-01T03:52:18;6.50;99.90
11126;DHT22;5617;54.046;10.676;2023-04-01T03:54:26;6.40;99.90
11126;DHT22;5617;54.046;10.676;2023-04-01T03:56:34;6.40;99.90
11126;DHT22;5617;54.046;10.676;2023-04-01T03:58:43;6.40;99.90
11126;DHT22;5617;54.046;10.676;2023-04-01T04:00:51;6.40;99.90
11126;DHT22;5617;54.046;10.676;2023-04-01T04:02:59;6.40;99.90
11126;DHT22;5617;54.046;10.676;2023-04-01T04:05:07;6.40;99.90
11126;DHT22;5617;54.046;10.676;2023-04-01T04:07:15;6.40;99.90
11126;DHT22;5617;54.046;10.676;2023-04-01T04:09:23;6.40;99.90
11126;DHT22;5617;54.046;10.676;2023-04-01T04:11:31;6.40;99.90
11126;DHT22;5617;54.046;10.676;2023-04-01T04:13:39;6.40;99.90
11126;DHT22;5617;54.046;10.676;2023-04-01T04:15:48;6.30;99.90
11126;DHT22;5617;54.046;10.676;2023-04-01T04:17:56;6.30;99.90
11126;DHT22;5617;54.046;10.676;2023-04-01T04:20:05;6.30;99.90
11126;DHT22;5617;54.046;10.676;2023-04-01T04:22:13;6.30;99.90
11126;DHT22;5617;54.046;10.676;2023-04-01T04:24:21;6.30;99.90
11126;DHT22;5617;54.046;10.676;2023-04-01T04:26:29;6.20;99.90
11126;DHT22;5617;54.046;10.676;2023-04-01T04:28:37;6.20;99.90
11126;DHT22;5617;54.046;10.676;2023-04-01T04:30:45;6.20;99.90
11126;DHT22;5617;54.046;10.676;2023-04-01T04:32:54;6.20;99.90
11126;DHT22;5617;54.046;10.676;2023-04-01T04:35:02;6.20;99.90
11126;DHT22;5617;54.046;10.676;2023-04-01T04:37:12;6.20;99.90
11126;DHT22;5617;54.046;10.676;2023-04-01T04:39:20;6.20;99.90
11126;DHT22;5617;54.046;10.676;2023-04-01T04:41:28;6.20;99.90
11126;DHT22;5617;54.046;10.676;2023-04-01T04:43:36;6.20;99.90
11126;DHT22;5617;54.046;10.676;2023-04-01T04:45:44;6.20;99.90
11126;DHT22;5617;54.046;10.676;2023-04-01T04:47:53;6.20;99.90
11126;DHT22;5617;54.046;10.676;2023-04-01T04:50:01;6.20;99.90
11126;DHT22;5617;54.046;10.676;2023-04-01T04:52:09;6.20;99.90
11126;DHT22;5617;54.046;10.676;2023-04-01T04:54:16;6.10;99.90
11126;DHT22;5617;54.046;10.676;2023-04-01T04:56:26;6.10;99.90
11126;DHT22;5617;54.046;10.676;2023-04-01T04:58:35;6.10;99.90
11126;DHT22;5617;54.046;10.676;2023-04-01T05:00:42;6.10;99.90
11126;DHT22;5617;54.046;10.676;2023-04-01T05:02:50;6.10;99.90
11126;DHT22;5617;54.046;10.676;2023-04-01T05:04:59;6.00;99.90
11126;DHT22;5617;54.046;10.676;2023-04-01T05:07:07;6.10;99.90
11126;DHT22;5617;54.046;10.676;2023-04-01T05:09:15;6.10;99.90
11126;DHT22;5617;54.046;10.676;2023-04-01T05:11:22;6.10;99.90
11126;DHT22;5617;54.046;10.676;2023-04-01T05:13:32;6.10;99.90
11126;DHT22;5617;54.046;10.676;2023-04-01T05:15:40;6.00;99.90
11126;DHT22;5617;54.046;10.676;2023-04-01T05:17:48;6.10;99.90
11126;DHT22;5617;54.046;10.676;2023-04-01T05:19:56;6.00;99.90
11126;DHT22;5617;54.046;10.676;2023-04-01T05:22:06;6.00;99.90
11126;DHT22;5617;54.046;10.676;2023-04-01T05:24:13;6.00;99.90
11126;DHT22;5617;54.046;10.676;2023-04-01T05:26:21;6.00;99.90
11126;DHT22;5617;54.046;10.676;2023-04-01T05:28:29;6.00;99.90
11126;DHT22;5617;54.046;10.676;2023-04-01T05:30:36;6.00;99.90
11126;DHT22;5617;54.046;10.676;2023-04-01T05:32:46;5.90;99.90
11126;DHT22;5617;54.046;10.676;2023-04-01T05:34:54;5.90;99.90
11126;DHT22;5617;54.046;10.676;2023-04-01T05:37:02;5.90;99.90
11126;DHT22;5617;54.046;10.676;2023-04-01T05:39:11;5.90;99.90
11126;DHT22;5617;54.046;10.676;2023-04-01T05:41:19;5.90;99.90
11126;DHT22;5617;54.046;10.676;2023-04-01T05:43:26;5.90;99.90
11126;DHT22;5617;54.046;10.676;2023-04-01T05:45:34;5.90;99.90
11126;DHT22;5617;54.046;10.676;2023-04-01T05:47:42;5.90;99.90
11126;DHT22;5617;54.046;10.676;2023-04-01T05:49:50;5.90;99.90
11126;DHT22;5617;54.046;10.676;2023-04-01T05:51:57;5.90;99.90
11126;DHT22;5617;54.046;10.676;2023-04-01T05:54:05;5.90;99.90
11126;DHT22;5617;54.046;10.676;2023-04-01T05:56:15;5.90;99.90
11126;DHT22;5617;54.046;10.676;2023-04-01T05:58:23;5.80;99.90
11126;DHT22;5617;54.046;10.676;2023-04-01T06:00:30;5.80;99.90
11126;DHT22;5617;54.046;10.676;2023-04-01T06:02:38;5.80;99.90
11126;DHT22;5617;54.046;10.676;2023-04-01T06:04:48;5.80;99.90
11126;DHT22;5617;54.046;10.676;2023-04-01T06:06:56;5.80;99.90
11126;DHT22;5617;54.046;10.676;2023-04-01T06:09:11;5.80;99.90
11126;DHT22;5617;54.046;10.676;2023-04-01T06:11:29;5.80;99.90
11126;DHT22;5617;54.046;10.676;2023-04-01T06:13:57;5.80;99.90
11126;DHT22;5617;54.046;10.676;2023-04-01T06:16:15;5.80;99.90
11126;DHT22;5617;54.046;10.676;2023-04-01T06:18:52;5.80;99.90
11126;DHT22;5617;54.046;10.676;2023-04-01T06:21:10;5.70;99.90
11126;DHT22;5617;54.046;10.676;2023-04-01T06:23:32;5.70;99.90
11126;DHT22;5617;54.046;10.676;2023-04-01T06:25:54;5.70;99.90
11126;DHT22;5617;54.046;10.676;2023-04-01T06:28:35;5.70;99.90
11126;DHT22;5617;54.046;10.676;2023-04-01T06:30:52;5.70;99.90
11126;DHT22;5617;54.046;10.676;2023-04-01T06:33:45;5.70;99.90
11126;DHT22;5617;54.046;10.676;2023-04-01T06:36:04;5.70;99.90
11126;DHT22;5617;54.046;10.676;2023-04-01T06:38:34;5.70;99.90
11126;DHT22;5617;54.046;10.676;2023-04-01T06:40:57;5.70;99.90
11126;DHT22;5617;54.046;10.676;2023-04-01T06:43:14;5.70;99.90
11126;DHT22;5617;54.046;10.676;2023-04-01T06:45:33;5.70;99.90
11126;DHT22;5617;54.046;10.676;2023-04-01T06:48:00;5.70;99.90
11126;DHT22;5617;54.046;10.676;2023-04-01T06:50:17;5.70;99.90
11126;DHT22;5617;54.046;10.676;2023-04-01T06:52:31;5.70;99.90
11126;DHT22;5617;54.046;10.676;2023-04-01T06:54:48;5.70;99.90
11126;DHT22;5617;54.046;10.676;2023-04-01T06:57:00;5.70;99.90
11126;DHT22;5617;54.046;10.676;2023-04-01T06:59:12;5.70;99.90
11126;DHT22;5617;54.046;10.676;2023-04-01T07:01:29;5.70;99.90
11126;DHT22;5617;54.046;10.676;2023-04-01T07:03:42;5.70;99.90
11126;DHT22;5617;54.046;10.676;2023-04-01T07:05:53;5.70;99.90
11126;DHT22;5617;54.046;10.676;2023-04-01T07:08:03;5.70;99.90
11126;DHT22;5617;54.046;10.676;2023-04-01T07:10:17;5.70;99.90
11126;DHT22;5617;54.046;10.676;2023-04-01T07:12:36;5.70;99.90
11126;DHT22;5617;54.046;10.676;2023-04-01T07:14:46;5.70;99.90
11126;DHT22;5617;54.046;10.676;2023-04-01T07:16:59;5.70;99.90
11126;DHT22;5617;54.046;10.676;2023-04-01T07:19:14;5.70;99.90
11126;DHT22;5617;54.046;10.676;2023-04-01T07:21:27;5.70;99.90
11126;DHT22;5617;54.046;10.676;2023-04-01T07:23:39;5.70;99.90
11126;DHT22;5617;54.046;10.676;2023-04-01T07:25:51;5.60;99.90
11126;DHT22;5617;54.046;10.676;2023-04-01T07:28:02;5.70;99.90
11126;DHT22;5617;54.046;10.676;2023-04-01T07:30:15;5.70;99.90
11126;DHT22;5617;54.046;10.676;2023-04-01T07:32:31;5.70;99.90
11126;DHT22;5617;54.046;10.676;2023-04-01T07:37:14;5.60;99.90
11126;DHT22;5617;54.046;10.676;2023-04-01T07:39:30;5.70;99.90
11126;DHT22;5617;54.046;10.676;2023-04-01T07:41:47;5.70;99.90
11126;DHT22;5617;54.046;10.676;2023-04-01T07:44:06;5.70;99.90
11126;DHT22;5617;54.046;10.676;2023-04-01T07:46:28;5.70;99.90
11126;DHT22;5617;54.046;10.676;2023-04-01T07:48:47;5.70;99.90
11126;DHT22;5617;54.046;10.676;2023-04-01T07:51:02;5.70;99.90
11126;DHT22;5617;54.046;10.676;2023-04-01T07:53:15;5.70;99.90
11126;DHT22;5617;54.046;10.676;2023-04-01T07:55:27;5.70;99.90
11126;DHT22;5617;54.046;10.676;2023-04-01T07:57:41;5.70;99.90
11126;DHT22;5617;54.046;10.676;2023-04-01T07:59:58;5.70;99.90
11126;DHT22;5617;54.046;10.676;2023-04-01T08:02:18;5.80;99.90
11126;DHT22;5617;54.046;10.676;2023-04-01T08:04:41;5.70;99.90
11126;DHT22;5617;54.046;10.676;2023-04-01T08:06:56;5.80;99.90
11126;DHT22;5617;54.046;10.676;2023-04-01T08:09:10;5.80;99.90
11126;DHT22;5617;54.046;10.676;2023-04-01T08:11:35;5.80;99.90
11126;DHT22;5617;54.046;10.676;2023-04-01T08:13:53;5.80;99.90
11126;DHT22;5617;54.046;10.676;2023-04-01T08:16:08;5.80;99.90
11126;DHT22;5617;54.046;10.676;2023-04-01T08:18:27;5.80;99.90
11126;DHT22;5617;54.046;10.676;2023-04-01T08:20:41;5.80;99.90
11126;DHT22;5617;54.046;10.676;2023-04-01T08:22:58;5.80;99.90
11126;DHT22;5617;54.046;10.676;2023-04-01T08:25:11;5.80;99.90
11126;DHT22;5617;54.046;10.676;2023-04-01T08:27:26;5.90;99.90
11126;DHT22;5617;54.046;10.676;2023-04-01T08:29:39;5.90;99.90
11126;DHT22;5617;54.046;10.676;2023-04-01T08:31:53;5.80;99.90
11126;DHT22;5617;54.046;10.676;2023-04-01T08:34:05;5.90;99.90
11126;DHT22;5617;54.046;10.676;2023-04-01T08:36:21;5.80;99.90
11126;DHT22;5617;54.046;10.676;2023-04-01T08:38:34;5.90;99.90
11126;DHT22;5617;54.046;10.676;2023-04-01T08:40:59;5.90;99.90
11126;DHT22;5617;54.046;10.676;2023-04-01T08:43:11;5.90;99.90
11126;DHT22;5617;54.046;10.676;2023-04-01T08:45:34;5.80;99.90
11126;DHT22;5617;54.046;10.676;2023-04-01T08:50:55;5.90;99.90
11126;DHT22;5617;54.046;10.676;2023-04-01T08:53:16;5.90;99.90
11126;DHT22;5617;54.046;10.676;2023-04-01T08:55:51;5.90;99.90
11126;DHT22;5617;54.046;10.676;2023-04-01T08:58:27;5.90;99.90
11126;DHT22;5617;54.046;10.676;2023-04-01T09:00:43;5.90;99.90
11126;DHT22;5617;54.046;10.676;2023-04-01T09:03:11;5.90;99.90
11126;DHT22;5617;54.046;10.676;2023-04-01T09:05:36;5.80;99.90
11126;DHT22;5617;54.046;10.676;2023-04-01T09:07:50;5.80;99.90
11126;DHT22;5617;54.046;10.676;2023-04-01T09:10:20;5.80;99.90
11126;DHT22;5617;54.046;10.676;2023-04-01T09:12:39;5.80;99.90
11126;DHT22;5617;54.046;10.676;2023-04-01T09:20:40;5.90;99.90
11126;DHT22;5617;54.046;10.676;2023-04-01T09:23:09;5.80;99.90
11126;DHT22;5617;54.046;10.676;2023-04-01T09:25:30;5.80;99.90
11126;DHT22;5617;54.046;10.676;2023-04-01T09:27:44;5.90;99.90
11126;DHT22;5617;54.046;10.676;2023-04-01T09:30:25;5.80;99.90
11126;DHT22;5617;54.046;10.676;2023-04-01T09:32:48;5.80;99.90
11126;DHT22;5617;54.046;10.676;2023-04-01T09:35:06;5.80;99.90
11126;DHT22;5617;54.046;10.676;2023-04-01T09:37:31;5.80;99.90
11126;DHT22;5617;54.046;10.676;2023-04-01T09:39:48;5.70;99.90
11126;DHT22;5617;54.046;10.676;2023-04-01T09:42:07;5.70;99.90
11126;DHT22;5617;54.046;10.676;2023-04-01T09:44:23;5.70;99.90
11126;DHT22;5617;54.046;10.676;2023-04-01T09:46:53;5.60;99.90
11126;DHT22;5617;54.046;10.676;2023-04-01T09:49:32;5.60;99.90
11126;DHT22;5617;54.046;10.676;2023-04-01T09:51:52;5.60;99.90
11126;DHT22;5617;54.046;10.676;2023-04-01T09:54:13;5.60;99.90
11126;DHT22;5617;54.046;10.676;2023-04-01T10:00:00;5.60;99.90
11126;DHT22;5617;54.046;10.676;2023-04-01T10:02:44;5.70;99.90
11126;DHT22;5617;54.046;10.676;2023-04-01T10:05:33;5.60;99.90
11126;DHT22;5617;54.046;10.676;2023-04-01T10:10:46;5.40;99.90
11126;DHT22;5617;54.046;10.676;2023-04-01T10:19:15;5.40;99.90
11126;DHT22;5617;54.046;10.676;2023-04-01T10:21:48;5.30;99.90
11126;DHT22;5617;54.046;10.676;2023-04-01T10:24:32;5.40;99.90
11126;DHT22;5617;54.046;10.676;2023-04-01T10:27:06;5.40;99.90
11126;DHT22;5617;54.046;10.676;2023-04-01T10:29:50;5.40;99.90
11126;DHT22;5617;54.046;10.676;2023-04-01T10:32:24;5.40;99.90
11126;DHT22;5617;54.046;10.676;2023-04-01T10:35:03;5.50;99.90
11126;DHT22;5617;54.046;10.676;2023-04-01T10:37:29;5.50;99.90
11126;DHT22;5617;54.046;10.676;2023-04-01T10:45:46;5.50;99.90
11126;DHT22;5617;54.046;10.676;2023-04-01T10:48:16;5.40;99.90
11126;DHT22;5617;54.046;10.676;2023-04-01T10:50:41;5.40;99.90
11126;DHT22;5617;54.046;10.676;2023-04-01T10:53:14;5.40;99.90
11126;DHT22;5617;54.046;10.676;2023-04-01T10:55:44;5.40;99.90
11126;DHT22;5617;54.046;10.676;2023-04-01T10:58:16;5.40;99.90
11126;DHT22;5617;54.046;10.676;2023-04-01T11:03:28;5.40;99.90
11126;DHT22;5617;54.046;10.676;2023-04-01T11:06:18;5.40;99.90
11126;DHT22;5617;54.046;10.676;2023-04-01T11:14:15;5.40;99.90
11126;DHT22;5617;54.046;10.676;2023-04-01T11:16:56;5.40;99.90
11126;DHT22;5617;54.046;10.676;2023-04-01T11:22:16;5.50;99.90
11126;DHT22;5617;54.046;10.676;2023-04-01T11:24:43;5.50;99.90
11126;DHT22;5617;54.046;10.676;2023-04-01T11:27:04;5.40;99.90
11126;DHT22;5617;54.046;10.676;2023-04-01T11:31:58;5.40;99.90
11126;DHT22;5617;54.046;10.676;2023-04-01T11:34:20;5.40;99.90
11126;DHT22;5617;54.046;10.676;2023-04-01T11:36:44;5.30;99.90
11126;DHT22;5617;54.046;10.676;2023-04-01T11:39:05;5.40;99.90
11126;DHT22;5617;54.046;10.676;2023-04-01T11:41:25;5.40;99.90
11126;DHT22;5617;54.046;10.676;2023-04-01T11:43:40;5.40;99.90
11126;DHT22;5617;54.046;10.676;2023-04-01T11:45:55;5.40;99.90
11126;DHT22;5617;54.046;10.676;2023-04-01T11:48:21;5.50;99.90
11126;DHT22;5617;54.046;10.676;2023-04-01T11:50:40;5.40;99.90
11126;DHT22;5617;54.046;10.676;2023-04-01T11:53:03;5.40;99.90
11126;DHT22;5617;54.046;10.676;2023-04-01T11:55:23;5.50;99.90
11126;DHT22;5617;54.046;10.676;2023-04-01T11:57:43;5.50;99.90
11126;DHT22;5617;54.046;10.676;2023-04-01T12:02:29;5.50;99.90
11126;DHT22;5617;54.046;10.676;2023-04-01T12:05:03;5.50;99.90
11126;DHT22;5617;54.046;10.676;2023-04-01T12:07:22;5.50;99.90
11126;DHT22;5617;54.046;10.676;2023-04-01T12:09:37;5.40;99.90
11126;DHT22;5617;54.046;10.676;2023-04-01T12:12:02;5.40;99.90
11126;DHT22;5617;54.046;10.676;2023-04-01T12:14:17;5.40;99.90
11126;DHT22;5617;54.046;10.676;2023-04-01T12:16:41;5.40;99.90
11126;DHT22;5617;54.046;10.676;2023-04-01T12:18:54;5.50;99.90
11126;DHT22;5617;54.046;10.676;2023-04-01T12:21:14;5.50;99.90
11126;DHT22;5617;54.046;10.676;2023-04-01T12:23:50;5.50;99.90
11126;DHT22;5617;54.046;10.676;2023-04-01T12:26:31;5.40;99.90
11126;DHT22;5617;54.046;10.676;2023-04-01T12:28:57;5.40;99.90
11126;DHT22;5617;54.046;10.676;2023-04-01T12:31:17;5.30;99.90
11126;DHT22;5617;54.046;10.676;2023-04-01T12:33:42;5.30;99.90
11126;DHT22;5617;54.046;10.676;2023-04-01T12:36:01;5.40;99.90
11126;DHT22;5617;54.046;10.676;2023-04-01T12:38:23;5.30;99.90
11126;DHT22;5617;54.046;10.676;2023-04-01T12:40:49;5.30;99.90
11126;DHT22;5617;54.046;10.676;2023-04-01T12:43:11;5.30;99.90
11126;DHT22;5617;54.046;10.676;2023-04-01T12:45:33;5.30;99.90
11126;DHT22;5617;54.046;10.676;2023-04-01T12:47:53;5.40;99.90
11126;DHT22;5617;54.046;10.676;2023-04-01T12:50:19;5.30;99.90
11126;DHT22;5617;54.046;10.676;2023-04-01T12:52:41;5.30;99.90
11126;DHT22;5617;54.046;10.676;2023-04-01T12:55:15;5.30;99.90
11126;DHT22;5617;54.046;10.676;2023-04-01T12:57:39;5.20;99.90
11126;DHT22;5617;54.046;10.676;2023-04-01T13:00:04;5.20;99.90
11126;DHT22;5617;54.046;10.676;2023-04-01T13:02:30;5.20;99.90
11126;DHT22;5617;54.046;10.676;2023-04-01T13:04:55;5.20;99.90
11126;DHT22;5617;54.046;10.676;2023-04-01T13:09:48;5.20;99.90
11126;DHT22;5617;54.046;10.676;2023-04-01T13:15:09;5.10;99.90
11126;DHT22;5617;54.046;10.676;2023-04-01T13:17:31;5.20;99.90
11126;DHT22;5617;54.046;10.676;2023-04-01T13:19:45;5.20;99.90
11126;DHT22;5617;54.046;10.676;2023-04-01T13:22:00;5.20;99.90
11126;DHT22;5617;54.046;10.676;2023-04-01T13:24:28;5.20;99.90
11126;DHT22;5617;54.046;10.676;2023-04-01T13:26:44;5.20;99.90
11126;DHT22;5617;54.046;10.676;2023-04-01T13:29:02;5.20;99.90
11126;DHT22;5617;54.046;10.676;2023-04-01T13:31:24;5.20;99.90
11126;DHT22;5617;54.046;10.676;2023-04-01T13:33:38;5.20;99.90
11126;DHT22;5617;54.046;10.676;2023-04-01T13:35:58;5.10;99.90
11126;DHT22;5617;54.046;10.676;2023-04-01T13:40:52;5.10;99.90
11126;DHT22;5617;54.046;10.676;2023-04-01T13:43:04;5.10;99.90
11126;DHT22;5617;54.046;10.676;2023-04-01T13:45:19;5.10;99.90
11126;DHT22;5617;54.046;10.676;2023-04-01T13:47:49;5.10;99.90
11126;DHT22;5617;54.046;10.676;2023-04-01T13:50:26;5.10;99.90
11126;DHT22;5617;54.046;10.676;2023-04-01T13:55:33;5.10;99.90
11126;DHT22;5617;54.046;10.676;2023-04-01T13:57:52;5.10;99.90
11126;DHT22;5617;54.046;10.676;2023-04-01T14:00:32;5.10;99.90
11126;DHT22;5617;54.046;10.676;2023-04-01T14:02:51;5.00;99.90
11126;DHT22;5617;54.046;10.676;2023-04-01T14:07:50;5.00;99.90
11126;DHT22;5617;54.046;10.676;2023-04-01T14:10:19;5.00;99.90
11126;DHT22;5617;54.046;10.676;2023-04-01T14:12:34;5.00;99.90
11126;DHT22;5617;54.046;10.676;2023-04-01T14:14:56;5.00;99.90
11126;DHT22;5617;54.046;10.676;2023-04-01T14:17:30;5.00;99.90
11126;DHT22;5617;54.046;10.676;2023-04-01T14:20:02;5.00;99.90
11126;DHT22;5617;54.046;10.676;2023-04-01T14:22:23;5.00;99.90
11126;DHT22;5617;54.046;10.676;2023-04-01T14:24:58;5.00;99.90
11126;DHT22;5617;54.046;10.676;2023-04-01T14:27:31;5.00;99.90
11126;DHT22;5617;54.046;10.676;2023-04-01T14:29:51;5.00;99.90
11126;DHT22;5617;54.046;10.676;2023-04-01T14:32:07;5.00;99.90
11126;DHT22;5617;54.046;10.676;2023-04-01T14:34:31;5.00;99.90
11126;DHT22;5617;54.046;10.676;2023-04-01T14:36:53;5.00;99.90
11126;DHT22;5617;54.046;10.676;2023-04-01T14:39:15;5.00;99.90
11126;DHT22;5617;54.046;10.676;2023-04-01T14:41:40;5.00;99.90
11126;DHT22;5617;54.046;10.676;2023-04-01T14:44:11;5.00;99.90
11126;DHT22;5617;54.046;10.676;2023-04-01T14:46:30;5.00;99.90
11126;DHT22;5617;54.046;10.676;2023-04-01T14:48:50;5.00;99.90
11126;DHT22;5617;54.046;10.676;2023-04-01T14:51:03;4.90;99.90
11126;DHT22;5617;54.046;10.676;2023-04-01T14:53:26;4.90;99.90
11126;DHT22;5617;54.046;10.676;2023-04-01T14:55:43;5.00;99.90
11126;DHT22;5617;54.046;10.676;2023-04-01T14:58:08;4.90;99.90
11126;DHT22;5617;54.046;10.676;2023-04-01T15:00:19;4.90;99.90
11126;DHT22;5617;54.046;10.676;2023-04-01T15:02:46;4.90;99.90
11126;DHT22;5617;54.046;10.676;2023-04-01T15:05:06;4.90;99.90
11126;DHT22;5617;54.046;10.676;2023-04-01T15:10:13;5.00;99.90
11126;DHT22;5617;54.046;10.676;2023-04-01T15:12:30;5.00;99.90
11126;DHT22;5617;54.046;10.676;2023-04-01T15:15:04;5.00;99.90
11126;DHT22;5617;54.046;10.676;2023-04-01T15:17:48;5.00;99.90
11126;DHT22;5617;54.046;10.676;2023-04-01T15:20:15;5.00;99.90
11126;DHT22;5617;54.046;10.676;2023-04-01T15:22:39;5.00;99.90
11126;DHT22;5617;54.046;10.676;2023-04-01T15:25:05;4.90;99.90
11126;DHT22;5617;54.046;10.676;2023-04-01T15:27:25;4.90;99.90
11126;DHT22;5617;54.046;10.676;2023-04-01T15:30:02;4.90;99.90
11126;DHT22;5617;54.046;10.676;2023-04-01T15:32:17;4.90;99.90
11126;DHT22;5617;54.046;10.676;2023-04-01T15:34:34;4.90;99.90
11126;DHT22;5617;54.046;10.676;2023-04-01T15:36:51;4.90;99.90
11126;DHT22;5617;54.046;10.676;2023-04-01T15:39:09;4.90;99.90
11126;DHT22;5617;54.046;10.676;2023-04-01T15:41:23;5.00;99.90